sensor_id;sensor_type;location;lat;lon;timestamp;temperature;humidity
4795;DHT22;2411;47.060;15.064;2022-09-02T00:01:21;13.50;1.00
4795;DHT22;2411;47.060;15.064;2022-09-02T00:03:51;13.50;1.00
4795;DHT22;2411;47.060;15.064;2022-09-02T00:06:20;13.50;1.00
4795;DHT22;2411;47.060;15.064;2022-09-02T00:08:48;13.50;1.00
4795;DHT22;2411;47.060;15.064;2022-09-02T00:11:18;13.50;1.00
4795;DHT22;2411;47.060;15.064;2022-09-02T00:13:46;13.50;1.00
4795;DHT22;2411;47.060;15.064;2022-09-02T00:16:14;13.50;1.00
4795;DHT22;2411;47.060;15.064;2022-09-02T00:18:41;13.50;1.00
4795;DHT22;2411;47.060;15.064;2022-09-02T00:21:12;13.50;1.00
4795;DHT22;2411;47.060;15.064;2022-09-02T00:23:42;13.50;1.00
4795;DHT22;2411;47.060;15.064;2022-09-02T00:26:10;13.50;1.00
4795;DHT22;2411;47.060;15.064;2022-09-02T00:28:38;13.50;1.00
4795;DHT22;2411;47.060;15.064;2022-09-02T00:31:13;13.50;1.00
4795;DHT22;2411;47.060;15.064;2022-09-02T00:33:40;13.50;1.00
4795;DHT22;2411;47.060;15.064;2022-09-02T00:36:07;13.50;1.00
4795;DHT22;2411;47.060;15.064;2022-09-02T00:38:35;13.40;1.00
4795;DHT22;2411;47.060;15.064;2022-09-02T00:41:05;13.40;1.00
4795;DHT22;2411;47.060;15.064;2022-09-02T00:43:53;13.40;1.00
4795;DHT22;2411;47.060;15.064;2022-09-02T00:46:24;13.30;1.00
4795;DHT22;2411;47.060;15.064;2022-09-02T00:51:44;13.30;1.00
4795;DHT22;2411;47.060;15.064;2022-09-02T00:54:13;13.30;1.00
4795;DHT22;2411;47.060;15.064;2022-09-02T00:56:42;13.40;1.00
4795;DHT22;2411;47.060;15.064;2022-09-02T00:59:17;13.40;1.00
4795;DHT22;2411;47.060;15.064;2022-09-02T01:01:45;13.40;1.00
4795;DHT22;2411;47.060;15.064;2022-09-02T01:04:12;13.40;1.00
4795;DHT22;2411;47.060;15.064;2022-09-02T01:06:40;13.40;1.00
4795;DHT22;2411;47.060;15.064;2022-09-02T01:09:11;13.40;1.00
4795;DHT22;2411;47.060;15.064;2022-09-02T01:11:41;13.40;1.00
4795;DHT22;2411;47.060;15.064;2022-09-02T01:14:09;13.30;1.00
4795;DHT22;2411;47.060;15.064;2022-09-02T01:16:45;13.30;1.00
4795;DHT22;2411;47.060;15.064;2022-09-02T01:19:22;13.30;1.00
4795;DHT22;2411;47.060;15.064;2022-09-02T01:21:53;13.30;1.00
4795;DHT22;2411;47.060;15.064;2022-09-02T01:24:24;13.20;1.00
4795;DHT22;2411;47.060;15.064;2022-09-02T01:26:53;13.20;1.00
4795;DHT22;2411;47.060;15.064;2022-09-02T01:29:21;13.20;1.00
4795;DHT22;2411;47.060;15.064;2022-09-02T01:31:49;13.20;1.00
4795;DHT22;2411;47.060;15.064;2022-09-02T01:34:16;13.20;1.00
4795;DHT22;2411;47.060;15.064;2022-09-02T01:36:44;13.20;1.00
4795;DHT22;2411;47.060;15.064;2022-09-02T01:39:11;13.20;1.00
4795;DHT22;2411;47.060;15.064;2022-09-02T01:41:39;13.10;1.00
4795;DHT22;2411;47.060;15.064;2022-09-02T01:44:07;13.10;1.00
4795;DHT22;2411;47.060;15.064;2022-09-02T01:46:34;13.10;1.00
4795;DHT22;2411;47.060;15.064;2022-09-02T01:49:03;13.20;1.00
4795;DHT22;2411;47.060;15.064;2022-09-02T01:51:30;13.10;1.00
4795;DHT22;2411;47.060;15.064;2022-09-02T01:53:57;13.20;1.00
4795;DHT22;2411;47.060;15.064;2022-09-02T01:56:24;13.10;1.00
4795;DHT22;2411;47.060;15.064;2022-09-02T01:58:51;13.10;1.00
4795;DHT22;2411;47.060;15.064;2022-09-02T02:01:18;13.10;1.00
4795;DHT22;2411;47.060;15.064;2022-09-02T02:03:45;13.10;1.00
4795;DHT22;2411;47.060;15.064;2022-09-02T02:06:16;13.10;1.00
4795;DHT22;2411;47.060;15.064;2022-09-02T02:08:43;13.10;1.00
4795;DHT22;2411;47.060;15.064;2022-09-02T02:11:17;13.10;1.00
4795;DHT22;2411;47.060;15.064;2022-09-02T02:13:44;13.10;1.00
4795;DHT22;2411;47.060;15.064;2022-09-02T02:16:11;13.10;1.00
4795;DHT22;2411;47.060;15.064;2022-09-02T02:18:39;13.10;1.00
4795;DHT22;2411;47.060;15.064;2022-09-02T02:21:06;13.00;1.00
4795;DHT22;2411;47.060;15.064;2022-09-02T02:23:33;13.00;1.00
4795;DHT22;2411;47.060;15.064;2022-09-02T02:26:00;13.00;1.00
4795;DHT22;2411;47.060;15.064;2022-09-02T02:28:27;13.00;1.00
4795;DHT22;2411;47.060;15.064;2022-09-02T02:30:55;12.90;1.00
4795;DHT22;2411;47.060;15.064;2022-09-02T02:33:23;12.90;1.00
4795;DHT22;2411;47.060;15.064;2022-09-02T02:36:02;12.90;1.00
4795;DHT22;2411;47.060;15.064;2022-09-02T02:38:34;12.80;1.00
4795;DHT22;2411;47.060;15.064;2022-09-02T02:41:02;12.80;1.00
4795;DHT22;2411;47.060;15.064;2022-09-02T02:43:33;12.80;1.00
4795;DHT22;2411;47.060;15.064;2022-09-02T02:46:02;12.80;1.00
4795;DHT22;2411;47.060;15.064;2022-09-02T02:48:29;12.70;1.00
4795;DHT22;2411;47.060;15.064;2022-09-02T02:50:56;12.60;1.00
4795;DHT22;2411;47.060;15.064;2022-09-02T02:53:23;12.60;1.00
4795;DHT22;2411;47.060;15.064;2022-09-02T02:55:50;12.60;1.00
4795;DHT22;2411;47.060;15.064;2022-09-02T02:58:17;12.50;1.00
4795;DHT22;2411;47.060;15.064;2022-09-02T03:00:44;12.30;1.00
4795;DHT22;2411;47.060;15.064;2022-09-02T03:03:12;12.30;1.00
4795;DHT22;2411;47.060;15.064;2022-09-02T03:05:39;12.20;1.00
4795;DHT22;2411;47.060;15.064;2022-09-02T03:08:08;12.10;1.00
4795;DHT22;2411;47.060;15.064;2022-09-02T03:10:37;11.90;1.00
4795;DHT22;2411;47.060;15.064;2022-09-02T03:13:04;11.90;1.00
4795;DHT22;2411;47.060;15.064;2022-09-02T03:15:31;11.80;1.00
4795;DHT22;2411;47.060;15.064;2022-09-02T03:17:58;11.80;1.00
4795;DHT22;2411;47.060;15.064;2022-09-02T03:20:25;11.60;1.00
4795;DHT22;2411;47.060;15.064;2022-09-02T03:22:55;11.60;1.00
4795;DHT22;2411;47.060;15.064;2022-09-02T03:25:22;11.50;1.00
4795;DHT22;2411;47.060;15.064;2022-09-02T03:27:51;11.40;1.00
4795;DHT22;2411;47.060;15.064;2022-09-02T03:30:21;11.40;1.00
4795;DHT22;2411;47.060;15.064;2022-09-02T03:32:49;11.20;1.00
4795;DHT22;2411;47.060;15.064;2022-09-02T03:35:17;11.10;1.00
4795;DHT22;2411;47.060;15.064;2022-09-02T03:37:45;11.10;1.00
4795;DHT22;2411;47.060;15.064;2022-09-02T03:40:17;11.00;1.00
4795;DHT22;2411;47.060;15.064;2022-09-02T03:42:46;10.90;1.00
4795;DHT22;2411;47.060;15.064;2022-09-02T03:45:13;10.80;1.00
4795;DHT22;2411;47.060;15.064;2022-09-02T03:47:44;10.70;1.00
4795;DHT22;2411;47.060;15.064;2022-09-02T03:50:17;10.70;1.00
4795;DHT22;2411;47.060;15.064;2022-09-02T03:52:45;10.60;1.00
4795;DHT22;2411;47.060;15.064;2022-09-02T03:55:13;10.60;1.00
4795;DHT22;2411;47.060;15.064;2022-09-02T03:57:40;10.50;1.00
4795;DHT22;2411;47.060;15.064;2022-09-02T04:00:09;10.40;1.00
4795;DHT22;2411;47.060;15.064;2022-09-02T04:02:37;10.50;1.00
4795;DHT22;2411;47.060;15.064;2022-09-02T04:05:04;10.40;1.00
4795;DHT22;2411;47.060;15.064;2022-09-02T04:07:39;10.40;1.00
4795;DHT22;2411;47.060;15.064;2022-09-02T04:10:08;10.30;1.00
4795;DHT22;2411;47.060;15.064;2022-09-02T04:12:36;10.30;1.00
4795;DHT22;2411;47.060;15.064;2022-09-02T04:15:05;10.20;1.00
4795;DHT22;2411;47.060;15.064;2022-09-02T04:17:35;10.20;1.00
4795;DHT22;2411;47.060;15.064;2022-09-02T04:20:04;10.10;1.00
4795;DHT22;2411;47.060;15.064;2022-09-02T04:22:31;10.10;1.00
4795;DHT22;2411;47.060;15.064;2022-09-02T04:24:59;10.00;1.00
4795;DHT22;2411;47.060;15.064;2022-09-02T04:27:26;10.00;1.00
4795;DHT22;2411;47.060;15.064;2022-09-02T04:29:53;9.90;1.00
4795;DHT22;2411;47.060;15.064;2022-09-02T04:32:20;9.90;1.00
4795;DHT22;2411;47.060;15.064;2022-09-02T04:34:47;9.90;1.00
4795;DHT22;2411;47.060;15.064;2022-09-02T04:37:15;9.80;1.00
4795;DHT22;2411;47.060;15.064;2022-09-02T04:39:42;9.90;1.00
4795;DHT22;2411;47.060;15.064;2022-09-02T04:42:09;9.90;1.00
4795;DHT22;2411;47.060;15.064;2022-09-02T04:44:36;9.90;1.00
4795;DHT22;2411;47.060;15.064;2022-09-02T04:47:03;9.90;1.00
4795;DHT22;2411;47.060;15.064;2022-09-02T04:49:30;10.00;1.00
4795;DHT22;2411;47.060;15.064;2022-09-02T04:51:59;9.90;1.00
4795;DHT22;2411;47.060;15.064;2022-09-02T04:54:26;10.00;1.00
4795;DHT22;2411;47.060;15.064;2022-09-02T04:56:53;10.00;1.00
4795;DHT22;2411;47.060;15.064;2022-09-02T04:59:20;10.00;1.00
4795;DHT22;2411;47.060;15.064;2022-09-02T05:01:47;10.00;1.00
4795;DHT22;2411;47.060;15.064;2022-09-02T05:04:15;10.10;1.00
4795;DHT22;2411;47.060;15.064;2022-09-02T05:06:42;10.10;1.00
4795;DHT22;2411;47.060;15.064;2022-09-02T05:09:10;10.10;1.00
4795;DHT22;2411;47.060;15.064;2022-09-02T05:11:37;10.10;1.00
4795;DHT22;2411;47.060;15.064;2022-09-02T05:14:05;10.20;1.00
4795;DHT22;2411;47.060;15.064;2022-09-02T05:16:36;10.20;1.00
4795;DHT22;2411;47.060;15.064;2022-09-02T05:19:05;10.20;1.00
4795;DHT22;2411;47.060;15.064;2022-09-02T05:21:32;10.40;1.00
4795;DHT22;2411;47.060;15.064;2022-09-02T05:24:00;10.50;1.00
4795;DHT22;2411;47.060;15.064;2022-09-02T05:26:27;10.60;1.00
4795;DHT22;2411;47.060;15.064;2022-09-02T05:28:53;10.80;1.00
4795;DHT22;2411;47.060;15.064;2022-09-02T05:31:21;10.80;1.00
4795;DHT22;2411;47.060;15.064;2022-09-02T05:33:48;11.00;1.00
4795;DHT22;2411;47.060;15.064;2022-09-02T05:36:18;11.10;1.00
4795;DHT22;2411;47.060;15.064;2022-09-02T05:38:46;11.20;1.00
4795;DHT22;2411;47.060;15.064;2022-09-02T05:41:20;11.40;1.00
4795;DHT22;2411;47.060;15.064;2022-09-02T05:43:50;11.50;1.00
4795;DHT22;2411;47.060;15.064;2022-09-02T05:46:20;11.60;1.00
4795;DHT22;2411;47.060;15.064;2022-09-02T05:48:48;11.80;1.00
4795;DHT22;2411;47.060;15.064;2022-09-02T05:51:46;11.90;1.00
4795;DHT22;2411;47.060;15.064;2022-09-02T05:54:25;12.10;1.00
4795;DHT22;2411;47.060;15.064;2022-09-02T05:56:56;12.20;1.00
4795;DHT22;2411;47.060;15.064;2022-09-02T05:59:25;12.40;1.00
4795;DHT22;2411;47.060;15.064;2022-09-02T06:01:52;12.50;1.00
4795;DHT22;2411;47.060;15.064;2022-09-02T06:04:20;12.70;1.00
4795;DHT22;2411;47.060;15.064;2022-09-02T06:06:49;12.80;1.00
4795;DHT22;2411;47.060;15.064;2022-09-02T06:09:18;13.00;1.00
4795;DHT22;2411;47.060;15.064;2022-09-02T06:11:47;13.10;1.00
4795;DHT22;2411;47.060;15.064;2022-09-02T06:14:22;13.20;1.00
4795;DHT22;2411;47.060;15.064;2022-09-02T06:16:51;13.20;1.00
4795;DHT22;2411;47.060;15.064;2022-09-02T06:19:19;13.40;1.00
4795;DHT22;2411;47.060;15.064;2022-09-02T06:21:47;13.50;1.00
4795;DHT22;2411;47.060;15.064;2022-09-02T06:24:14;13.50;1.00
4795;DHT22;2411;47.060;15.064;2022-09-02T06:26:41;13.60;1.00
4795;DHT22;2411;47.060;15.064;2022-09-02T06:29:09;13.80;1.00
4795;DHT22;2411;47.060;15.064;2022-09-02T06:31:38;14.00;1.00
4795;DHT22;2411;47.060;15.064;2022-09-02T06:34:06;14.10;1.00
4795;DHT22;2411;47.060;15.064;2022-09-02T06:36:32;14.30;1.00
4795;DHT22;2411;47.060;15.064;2022-09-02T06:39:00;14.40;1.00
4795;DHT22;2411;47.060;15.064;2022-09-02T06:41:29;14.50;1.00
4795;DHT22;2411;47.060;15.064;2022-09-02T06:43:59;14.60;1.00
4795;DHT22;2411;47.060;15.064;2022-09-02T06:46:48;14.80;1.00
4795;DHT22;2411;47.060;15.064;2022-09-02T06:49:21;14.90;1.00
4795;DHT22;2411;47.060;15.064;2022-09-02T06:51:49;14.90;1.00
4795;DHT22;2411;47.060;15.064;2022-09-02T06:54:18;15.00;1.00
4795;DHT22;2411;47.060;15.064;2022-09-02T06:56:47;15.20;1.00
4795;DHT22;2411;47.060;15.064;2022-09-02T06:59:16;15.30;1.00
4795;DHT22;2411;47.060;15.064;2022-09-02T07:01:44;15.40;1.00
4795;DHT22;2411;47.060;15.064;2022-09-02T07:04:12;15.60;1.00
4795;DHT22;2411;47.060;15.064;2022-09-02T07:06:57;15.70;1.00
4795;DHT22;2411;47.060;15.064;2022-09-02T07:09:26;15.80;1.00
4795;DHT22;2411;47.060;15.064;2022-09-02T07:12:02;15.90;1.00
4795;DHT22;2411;47.060;15.064;2022-09-02T07:14:35;16.00;1.00
4795;DHT22;2411;47.060;15.064;2022-09-02T07:17:02;16.10;1.00
4795;DHT22;2411;47.060;15.064;2022-09-02T07:19:29;16.30;1.00
4795;DHT22;2411;47.060;15.064;2022-09-02T07:21:56;16.50;1.00
4795;DHT22;2411;47.060;15.064;2022-09-02T07:24:23;16.60;1.00
4795;DHT22;2411;47.060;15.064;2022-09-02T07:26:50;16.80;1.00
4795;DHT22;2411;47.060;15.064;2022-09-02T07:29:21;16.90;1.00
4795;DHT22;2411;47.060;15.064;2022-09-02T07:31:49;17.20;1.00
4795;DHT22;2411;47.060;15.064;2022-09-02T07:34:17;17.30;1.00
4795;DHT22;2411;47.060;15.064;2022-09-02T07:36:44;17.30;1.00
4795;DHT22;2411;47.060;15.064;2022-09-02T07:39:12;17.50;1.00
4795;DHT22;2411;47.060;15.064;2022-09-02T07:41:42;17.80;1.00
4795;DHT22;2411;47.060;15.064;2022-09-02T07:44:09;18.10;1.00
4795;DHT22;2411;47.060;15.064;2022-09-02T07:46:36;18.10;1.00
4795;DHT22;2411;47.060;15.064;2022-09-02T07:49:06;18.20;1.00
4795;DHT22;2411;47.060;15.064;2022-09-02T07:51:36;18.00;1.00
4795;DHT22;2411;47.060;15.064;2022-09-02T07:54:06;18.00;1.00
4795;DHT22;2411;47.060;15.064;2022-09-02T07:56:34;18.30;1.00
4795;DHT22;2411;47.060;15.064;2022-09-02T07:59:02;18.40;1.00
4795;DHT22;2411;47.060;15.064;2022-09-02T08:01:29;18.10;1.00
4795;DHT22;2411;47.060;15.064;2022-09-02T08:03:57;18.00;1.00
4795;DHT22;2411;47.060;15.064;2022-09-02T08:06:29;17.80;1.00
4795;DHT22;2411;47.060;15.064;2022-09-02T08:09:04;17.90;1.00
4795;DHT22;2411;47.060;15.064;2022-09-02T08:11:38;18.10;1.00
4795;DHT22;2411;47.060;15.064;2022-09-02T08:14:12;18.30;1.00
4795;DHT22;2411;47.060;15.064;2022-09-02T08:16:43;18.40;1.00
4795;DHT22;2411;47.060;15.064;2022-09-02T08:19:10;18.50;1.00
4795;DHT22;2411;47.060;15.064;2022-09-02T08:21:38;18.50;1.00
4795;DHT22;2411;47.060;15.064;2022-09-02T08:24:05;18.60;1.00
4795;DHT22;2411;47.060;15.064;2022-09-02T08:26:31;18.70;1.00
4795;DHT22;2411;47.060;15.064;2022-09-02T08:29:07;18.70;1.00
4795;DHT22;2411;47.060;15.064;2022-09-02T08:31:36;18.90;1.00
4795;DHT22;2411;47.060;15.064;2022-09-02T08:34:04;18.80;1.00
4795;DHT22;2411;47.060;15.064;2022-09-02T08:36:31;18.90;1.00
4795;DHT22;2411;47.060;15.064;2022-09-02T08:39:01;19.00;1.00
4795;DHT22;2411;47.060;15.064;2022-09-02T08:41:51;19.10;1.00
4795;DHT22;2411;47.060;15.064;2022-09-02T08:44:21;19.20;1.00
4795;DHT22;2411;47.060;15.064;2022-09-02T08:46:53;19.30;1.00
4795;DHT22;2411;47.060;15.064;2022-09-02T08:49:28;19.40;1.00
4795;DHT22;2411;47.060;15.064;2022-09-02T08:51:58;19.70;1.00
4795;DHT22;2411;47.060;15.064;2022-09-02T08:54:47;19.90;1.00
4795;DHT22;2411;47.060;15.064;2022-09-02T08:57:16;20.00;1.00
4795;DHT22;2411;47.060;15.064;2022-09-02T08:59:43;20.10;1.00
4795;DHT22;2411;47.060;15.064;2022-09-02T09:10:58;20.90;1.00
4795;DHT22;2411;47.060;15.064;2022-09-02T09:19:14;20.80;1.00
4795;DHT22;2411;47.060;15.064;2022-09-02T09:21:42;20.80;1.00
4795;DHT22;2411;47.060;15.064;2022-09-02T09:24:25;20.70;1.00
4795;DHT22;2411;47.060;15.064;2022-09-02T09:26:53;20.60;1.00
4795;DHT22;2411;47.060;15.064;2022-09-02T09:29:21;20.50;1.00
4795;DHT22;2411;47.060;15.064;2022-09-02T09:31:56;20.50;1.00
4795;DHT22;2411;47.060;15.064;2022-09-02T09:34:23;20.50;1.00
4795;DHT22;2411;47.060;15.064;2022-09-02T09:36:52;20.50;1.00
4795;DHT22;2411;47.060;15.064;2022-09-02T09:39:28;20.60;1.00
4795;DHT22;2411;47.060;15.064;2022-09-02T09:41:57;20.40;1.00
4795;DHT22;2411;47.060;15.064;2022-09-02T09:47:18;20.60;1.00
4795;DHT22;2411;47.060;15.064;2022-09-02T09:49:47;20.70;1.00
4795;DHT22;2411;47.060;15.064;2022-09-02T09:52:22;20.90;1.00
4795;DHT22;2411;47.060;15.064;2022-09-02T09:55:18;21.30;1.00
4795;DHT22;2411;47.060;15.064;2022-09-02T09:57:50;21.60;1.00
4795;DHT22;2411;47.060;15.064;2022-09-02T10:00:29;21.70;1.00
4795;DHT22;2411;47.060;15.064;2022-09-02T10:03:02;22.00;1.00
4795;DHT22;2411;47.060;15.064;2022-09-02T10:05:33;22.20;1.00
4795;DHT22;2411;47.060;15.064;2022-09-02T10:08:27;22.30;1.00
4795;DHT22;2411;47.060;15.064;2022-09-02T10:11:03;22.50;1.00
4795;DHT22;2411;47.060;15.064;2022-09-02T10:13:33;22.50;1.00
4795;DHT22;2411;47.060;15.064;2022-09-02T10:18:55;22.80;1.00
4795;DHT22;2411;47.060;15.064;2022-09-02T10:28:06;22.50;1.00
4795;DHT22;2411;47.060;15.064;2022-09-02T10:30:20;22.30;1.00
4795;DHT22;2411;47.060;15.064;2022-09-02T10:33:09;22.60;1.00
4795;DHT22;2411;47.060;15.064;2022-09-02T10:36:04;23.00;1.00
4795;DHT22;2411;47.060;15.064;2022-09-02T10:38:46;23.00;1.00
4795;DHT22;2411;47.060;15.064;2022-09-02T10:41:39;23.00;1.00
4795;DHT22;2411;47.060;15.064;2022-09-02T10:48:03;23.00;1.00
4795;DHT22;2411;47.060;15.064;2022-09-02T10:55:59;23.00;1.00
4795;DHT22;2411;47.060;15.064;2022-09-02T11:01:36;23.00;1.00
4795;DHT22;2411;47.060;15.064;2022-09-02T11:06:59;23.10;1.00
4795;DHT22;2411;47.060;15.064;2022-09-02T11:09:35;23.30;1.00
4795;DHT22;2411;47.060;15.064;2022-09-02T11:12:36;23.30;1.00
4795;DHT22;2411;47.060;15.064;2022-09-02T11:15:17;23.20;1.00
4795;DHT22;2411;47.060;15.064;2022-09-02T11:18:08;23.30;1.00
4795;DHT22;2411;47.060;15.064;2022-09-02T11:34:16;23.00;1.00
4795;DHT22;2411;47.060;15.064;2022-09-02T11:36:44;23.10;1.00
4795;DHT22;2411;47.060;15.064;2022-09-02T11:39:48;23.20;1.00
4795;DHT22;2411;47.060;15.064;2022-09-02T11:42:57;23.10;1.00
4795;DHT22;2411;47.060;15.064;2022-09-02T11:53:24;23.00;1.00
4795;DHT22;2411;47.060;15.064;2022-09-02T11:56:20;22.90;1.00
4795;DHT22;2411;47.060;15.064;2022-09-02T11:58:51;23.00;1.00
4795;DHT22;2411;47.060;15.064;2022-09-02T12:01:46;23.30;1.00
4795;DHT22;2411;47.060;15.064;2022-09-02T12:17:39;24.40;1.00
4795;DHT22;2411;47.060;15.064;2022-09-02T12:20:11;24.20;1.00
4795;DHT22;2411;47.060;15.064;2022-09-02T12:22:56;24.40;1.00
4795;DHT22;2411;47.060;15.064;2022-09-02T12:28:29;24.60;1.00
4795;DHT22;2411;47.060;15.064;2022-09-02T12:33:44;24.60;1.00
4795;DHT22;2411;47.060;15.064;2022-09-02T12:45:04;23.70;1.00
4795;DHT22;2411;47.060;15.064;2022-09-02T12:50:24;23.40;1.00
4795;DHT22;2411;47.060;15.064;2022-09-02T12:53:10;23.80;1.00
4795;DHT22;2411;47.060;15.064;2022-09-02T12:56:05;23.70;1.00
4795;DHT22;2411;47.060;15.064;2022-09-02T12:58:38;23.70;1.00
4795;DHT22;2411;47.060;15.064;2022-09-02T13:15:24;24.10;1.00
4795;DHT22;2411;47.060;15.064;2022-09-02T13:18:21;24.30;1.00
4795;DHT22;2411;47.060;15.064;2022-09-02T13:29:53;24.50;1.00
4795;DHT22;2411;47.060;15.064;2022-09-02T13:32:25;24.60;1.00
4795;DHT22;2411;47.060;15.064;2022-09-02T13:34:55;24.70;1.00
4795;DHT22;2411;47.060;15.064;2022-09-02T13:40:23;24.60;1.00
4795;DHT22;2411;47.060;15.064;2022-09-02T13:42:56;24.30;1.00
4795;DHT22;2411;47.060;15.064;2022-09-02T13:45:25;24.10;1.00
4795;DHT22;2411;47.060;15.064;2022-09-02T13:48:07;23.80;1.00
4795;DHT22;2411;47.060;15.064;2022-09-02T13:50:35;23.80;1.00
4795;DHT22;2411;47.060;15.064;2022-09-02T13:53:06;23.70;1.00
4795;DHT22;2411;47.060;15.064;2022-09-02T13:55:55;23.60;1.00
4795;DHT22;2411;47.060;15.064;2022-09-02T14:03:47;23.60;1.00
4795;DHT22;2411;47.060;15.064;2022-09-02T14:06:19;23.60;1.00
4795;DHT22;2411;47.060;15.064;2022-09-02T14:08:55;23.70;1.00
4795;DHT22;2411;47.060;15.064;2022-09-02T14:11:22;23.80;1.00
4795;DHT22;2411;47.060;15.064;2022-09-02T14:13:50;23.90;1.00
4795;DHT22;2411;47.060;15.064;2022-09-02T14:19:21;24.10;1.00
4795;DHT22;2411;47.060;15.064;2022-09-02T14:21:54;24.00;1.00
4795;DHT22;2411;47.060;15.064;2022-09-02T14:24:27;23.90;1.00
4795;DHT22;2411;47.060;15.064;2022-09-02T14:26:56;24.10;1.00
4795;DHT22;2411;47.060;15.064;2022-09-02T14:29:25;24.30;1.00
4795;DHT22;2411;47.060;15.064;2022-09-02T14:32:23;24.30;1.00
4795;DHT22;2411;47.060;15.064;2022-09-02T14:35:21;24.30;1.00
4795;DHT22;2411;47.060;15.064;2022-09-02T14:37:49;23.70;1.00
4795;DHT22;2411;47.060;15.064;2022-09-02T14:40:17;23.30;1.00
4795;DHT22;2411;47.060;15.064;2022-09-02T14:42:50;22.80;1.00
4795;DHT22;2411;47.060;15.064;2022-09-02T14:45:32;22.80;1.00
4795;DHT22;2411;47.060;15.064;2022-09-02T14:48:09;22.70;1.00
4795;DHT22;2411;47.060;15.064;2022-09-02T14:50:38;22.80;1.00
4795;DHT22;2411;47.060;15.064;2022-09-02T14:53:08;22.80;1.00
4795;DHT22;2411;47.060;15.064;2022-09-02T14:58:08;22.40;1.00
4795;DHT22;2411;47.060;15.064;2022-09-02T15:00:37;22.10;1.00
4795;DHT22;2411;47.060;15.064;2022-09-02T15:03:05;22.00;1.00
4795;DHT22;2411;47.060;15.064;2022-09-02T15:05:32;22.00;1.00
4795;DHT22;2411;47.060;15.064;2022-09-02T15:07:59;22.00;1.00
4795;DHT22;2411;47.060;15.064;2022-09-02T15:10:26;22.30;1.00
4795;DHT22;2411;47.060;15.064;2022-09-02T15:12:55;22.40;1.00
4795;DHT22;2411;47.060;15.064;2022-09-02T15:15:23;22.60;1.00
4795;DHT22;2411;47.060;15.064;2022-09-02T15:17:50;22.80;1.00
4795;DHT22;2411;47.060;15.064;2022-09-02T15:20:17;22.90;1.00
4795;DHT22;2411;47.060;15.064;2022-09-02T15:22:44;22.90;1.00
4795;DHT22;2411;47.060;15.064;2022-09-02T15:25:11;22.80;1.00
4795;DHT22;2411;47.060;15.064;2022-09-02T15:27:38;22.60;1.00
4795;DHT22;2411;47.060;15.064;2022-09-02T15:30:06;22.60;1.00
4795;DHT22;2411;47.060;15.064;2022-09-02T15:32:38;22.30;1.00
4795;DHT22;2411;47.060;15.064;2022-09-02T15:35:06;22.10;1.00
4795;DHT22;2411;47.060;15.064;2022-09-02T15:37:34;22.00;1.00
4795;DHT22;2411;47.060;15.064;2022-09-02T15:40:05;21.90;1.00
4795;DHT22;2411;47.060;15.064;2022-09-02T15:42:34;21.70;1.00
4795;DHT22;2411;47.060;15.064;2022-09-02T15:45:04;21.50;1.00
4795;DHT22;2411;47.060;15.064;2022-09-02T15:47:34;21.40;1.00
4795;DHT22;2411;47.060;15.064;2022-09-02T15:50:01;21.30;1.00
4795;DHT22;2411;47.060;15.064;2022-09-02T15:52:28;21.40;1.00
4795;DHT22;2411;47.060;15.064;2022-09-02T15:54:55;21.50;1.00
4795;DHT22;2411;47.060;15.064;2022-09-02T15:57:22;21.70;1.00
4795;DHT22;2411;47.060;15.064;2022-09-02T15:59:49;22.10;1.00
4795;DHT22;2411;47.060;15.064;2022-09-02T16:02:17;22.70;1.00
4795;DHT22;2411;47.060;15.064;2022-09-02T16:04:44;23.30;1.00
4795;DHT22;2411;47.060;15.064;2022-09-02T16:07:11;23.80;1.00
4795;DHT22;2411;47.060;15.064;2022-09-02T16:09:43;24.00;1.00
4795;DHT22;2411;47.060;15.064;2022-09-02T16:12:09;24.10;1.00
4795;DHT22;2411;47.060;15.064;2022-09-02T16:14:36;23.70;1.00
4795;DHT22;2411;47.060;15.064;2022-09-02T16:17:03;23.50;1.00
4795;DHT22;2411;47.060;15.064;2022-09-02T16:19:30;23.20;1.00
4795;DHT22;2411;47.060;15.064;2022-09-02T16:21:57;22.70;1.00
4795;DHT22;2411;47.060;15.064;2022-09-02T16:24:25;22.50;1.00
4795;DHT22;2411;47.060;15.064;2022-09-02T16:26:52;22.10;1.00
4795;DHT22;2411;47.060;15.064;2022-09-02T16:29:18;21.80;1.00
4795;DHT22;2411;47.060;15.064;2022-09-02T16:31:47;22.30;1.00
4795;DHT22;2411;47.060;15.064;2022-09-02T16:34:34;22.90;1.00
4795;DHT22;2411;47.060;15.064;2022-09-02T16:37:01;23.60;1.00
4795;DHT22;2411;47.060;15.064;2022-09-02T16:39:28;24.10;1.00
4795;DHT22;2411;47.060;15.064;2022-09-02T16:41:55;24.30;1.00
4795;DHT22;2411;47.060;15.064;2022-09-02T16:44:24;24.60;1.00
4795;DHT22;2411;47.060;15.064;2022-09-02T16:46:52;24.40;1.00
4795;DHT22;2411;47.060;15.064;2022-09-02T16:49:20;23.60;1.00
4795;DHT22;2411;47.060;15.064;2022-09-02T16:51:49;23.10;1.00
4795;DHT22;2411;47.060;15.064;2022-09-02T16:54:25;22.30;1.00
4795;DHT22;2411;47.060;15.064;2022-09-02T16:56:58;21.60;1.00
4795;DHT22;2411;47.060;15.064;2022-09-02T16:59:25;21.00;1.00
4795;DHT22;2411;47.060;15.064;2022-09-02T17:01:52;20.50;1.00
4795;DHT22;2411;47.060;15.064;2022-09-02T17:04:19;20.20;1.00
4795;DHT22;2411;47.060;15.064;2022-09-02T17:06:46;19.90;1.00
4795;DHT22;2411;47.060;15.064;2022-09-02T17:09:14;19.70;1.00
4795;DHT22;2411;47.060;15.064;2022-09-02T17:11:41;19.50;1.00
4795;DHT22;2411;47.060;15.064;2022-09-02T17:14:13;19.30;1.00
4795;DHT22;2411;47.060;15.064;2022-09-02T17:16:47;19.20;1.00
4795;DHT22;2411;47.060;15.064;2022-09-02T17:19:16;19.00;1.00
4795;DHT22;2411;47.060;15.064;2022-09-02T17:21:54;18.80;1.00
4795;DHT22;2411;47.060;15.064;2022-09-02T17:24:24;18.60;1.00
4795;DHT22;2411;47.060;15.064;2022-09-02T17:26:53;18.50;1.00
4795;DHT22;2411;47.060;15.064;2022-09-02T17:29:23;18.30;1.00
4795;DHT22;2411;47.060;15.064;2022-09-02T17:32:10;18.00;1.00
4795;DHT22;2411;47.060;15.064;2022-09-02T17:34:37;17.80;1.00
4795;DHT22;2411;47.060;15.064;2022-09-02T17:37:04;17.70;1.00
4795;DHT22;2411;47.060;15.064;2022-09-02T17:39:32;17.60;1.00
4795;DHT22;2411;47.060;15.064;2022-09-02T17:42:02;17.50;1.00
4795;DHT22;2411;47.060;15.064;2022-09-02T17:44:35;17.30;1.00
4795;DHT22;2411;47.060;15.064;2022-09-02T17:49:36;17.10;1.00
4795;DHT22;2411;47.060;15.064;2022-09-02T17:52:04;16.90;1.00
4795;DHT22;2411;47.060;15.064;2022-09-02T17:54:35;16.80;1.00
4795;DHT22;2411;47.060;15.064;2022-09-02T17:57:30;16.70;1.00
4795;DHT22;2411;47.060;15.064;2022-09-02T18:03:06;16.60;1.00
4795;DHT22;2411;47.060;15.064;2022-09-02T18:08:46;16.40;1.00
4795;DHT22;2411;47.060;15.064;2022-09-02T18:11:14;16.20;1.00
4795;DHT22;2411;47.060;15.064;2022-09-02T18:16:44;16.10;1.00
4795;DHT22;2411;47.060;15.064;2022-09-02T18:30:23;15.50;1.00
4795;DHT22;2411;47.060;15.064;2022-09-02T18:46:49;15.50;1.00
4795;DHT22;2411;47.060;15.064;2022-09-02T18:49:21;15.50;1.00
4795;DHT22;2411;47.060;15.064;2022-09-02T18:51:53;15.50;1.00
4795;DHT22;2411;47.060;15.064;2022-09-02T18:54:25;15.50;1.00
4795;DHT22;2411;47.060;15.064;2022-09-02T18:56:57;15.50;1.00
4795;DHT22;2411;47.060;15.064;2022-09-02T18:59:44;15.60;1.00
4795;DHT22;2411;47.060;15.064;2022-09-02T19:02:25;15.60;1.00
4795;DHT22;2411;47.060;15.064;2022-09-02T19:04:56;15.60;1.00
4795;DHT22;2411;47.060;15.064;2022-09-02T19:07:24;15.60;1.00
4795;DHT22;2411;47.060;15.064;2022-09-02T19:10:10;15.60;1.00
4795;DHT22;2411;47.060;15.064;2022-09-02T19:12:37;15.60;1.00
4795;DHT22;2411;47.060;15.064;2022-09-02T19:15:08;15.50;1.00
4795;DHT22;2411;47.060;15.064;2022-09-02T19:17:39;15.50;1.00